createdAt,value
2017-11-11T00:00:40.742Z,8.20
2017-11-11T00:03:08.647Z,8.20
2017-11-11T00:05:36.204Z,8.20
2017-11-11T00:08:03.730Z,8.20
2017-11-11T00:10:31.274Z,8.20
2017-11-11T00:12:59.722Z,8.10
2017-11-11T00:15:27.350Z,8.10
2017-11-11T00:17:54.870Z,8.10
2017-11-11T00:20:22.675Z,8.10
2017-11-11T00:22:50.180Z,8.00
2017-11-11T00:25:17.698Z,8.00
2017-11-11T00:27:46.132Z,8.00
2017-11-11T00:30:13.726Z,7.90
2017-11-11T00:32:41.264Z,7.90
2017-11-11T00:35:08.856Z,7.90
2017-11-11T00:37:36.749Z,7.80
2017-11-11T00:40:04.266Z,7.70
2017-11-11T00:42:32.582Z,7.60
2017-11-11T00:45:00.158Z,7.60
2017-11-11T00:47:27.680Z,7.60
2017-11-11T00:49:55.236Z,7.60
2017-11-11T00:52:22.752Z,7.60
2017-11-11T00:54:50.279Z,7.60
2017-11-11T00:57:17.785Z,7.50
2017-11-11T00:59:45.587Z,7.50
2017-11-11T01:02:13.107Z,7.50
2017-11-11T01:04:40.741Z,7.60
2017-11-11T01:07:08.291Z,7.60
2017-11-11T01:09:35.846Z,7.60
2017-11-11T01:12:03.392Z,7.60
2017-11-11T01:14:30.955Z,7.60
2017-11-11T01:16:58.870Z,7.50
2017-11-11T01:19:26.396Z,7.60
2017-11-11T01:21:53.898Z,7.50
2017-11-11T01:24:21.452Z,7.50
2017-11-11T01:26:49.059Z,7.40
2017-11-11T01:29:16.617Z,7.40
2017-11-11T01:31:44.126Z,7.40
2017-11-11T01:34:12.059Z,7.40
2017-11-11T01:36:39.587Z,7.30
2017-11-11T01:39:07.889Z,7.30
2017-11-11T01:41:35.435Z,7.30
2017-11-11T01:44:02.952Z,7.20
2017-11-11T01:46:30.805Z,7.20
2017-11-11T01:48:58.330Z,7.20
2017-11-11T01:51:25.868Z,7.10
2017-11-11T01:53:54.173Z,7.10
2017-11-11T01:56:21.756Z,7.00
2017-11-11T01:58:49.317Z,7.10
2017-11-11T02:01:16.838Z,7.10
2017-11-11T02:03:44.688Z,7.10
2017-11-11T02:06:12.212Z,7.10
2017-11-11T02:08:39.726Z,7.10
2017-11-11T02:11:07.269Z,7.10
2017-11-11T02:13:34.799Z,7.10
2017-11-11T02:16:02.317Z,7.10
2017-11-11T02:18:29.831Z,7.10
2017-11-11T02:20:57.376Z,7.10
2017-11-11T02:23:24.888Z,7.20
2017-11-11T02:25:52.705Z,7.20
2017-11-11T02:28:20.256Z,7.20
2017-11-11T02:30:47.797Z,7.20
2017-11-11T02:33:15.340Z,7.20
2017-11-11T02:35:42.852Z,7.10
2017-11-11T02:38:10.411Z,7.10
2017-11-11T02:40:37.940Z,7.10
2017-11-11T02:43:05.743Z,7.10
2017-11-11T02:45:33.262Z,7.10
2017-11-11T02:48:00.785Z,7.10
2017-11-11T02:50:29.089Z,7.10
2017-11-11T02:52:56.590Z,7.10
2017-11-11T02:55:24.143Z,7.10
2017-11-11T02:57:51.677Z,7.10
2017-11-11T03:00:19.563Z,7.00
2017-11-11T03:02:47.073Z,7.10
2017-11-11T03:05:15.367Z,7.10
2017-11-11T03:07:42.903Z,7.00
2017-11-11T03:10:11.195Z,7.10
2017-11-11T03:12:38.728Z,7.00
2017-11-11T03:15:06.262Z,7.10
2017-11-11T03:17:34.098Z,7.10
2017-11-11T03:20:01.620Z,7.10
2017-11-11T03:22:29.142Z,7.10
2017-11-11T03:24:57.447Z,7.10
2017-11-11T03:27:24.952Z,7.00
2017-11-11T03:29:52.506Z,7.00
2017-11-11T03:32:20.027Z,7.00
2017-11-11T03:34:47.859Z,7.00
2017-11-11T03:37:15.382Z,7.00
2017-11-11T03:39:42.913Z,7.00
2017-11-11T03:42:10.475Z,7.00
2017-11-11T03:44:37.978Z,6.90
2017-11-11T03:47:05.526Z,6.90
2017-11-11T03:49:33.058Z,6.90
2017-11-11T03:52:01.571Z,6.90
2017-11-11T03:54:29.119Z,6.90
2017-11-11T03:56:57.399Z,6.90
2017-11-11T03:59:25.716Z,6.90
2017-11-11T04:01:53.231Z,6.90
2017-11-11T04:04:20.800Z,7.00
2017-11-11T04:06:49.745Z,7.00
2017-11-11T04:09:17.590Z,7.00
2017-11-11T04:11:45.118Z,7.10
2017-11-11T04:14:12.639Z,7.10
2017-11-11T04:16:40.185Z,7.10
2017-11-11T04:19:07.705Z,7.10
2017-11-11T04:21:35.555Z,7.10
2017-11-11T04:24:03.060Z,7.10
2017-11-11T04:26:30.568Z,7.10
2017-11-11T04:28:58.127Z,7.10
2017-11-11T04:31:26.412Z,7.10
2017-11-11T04:33:55.146Z,7.10
2017-11-11T04:36:23.363Z,7.10
2017-11-11T04:38:50.889Z,7.10
2017-11-11T04:41:18.432Z,7.20
2017-11-11T04:43:45.931Z,7.20
2017-11-11T04:46:13.465Z,7.20
2017-11-11T04:48:40.984Z,7.20
2017-11-11T04:51:09.564Z,7.20
2017-11-11T04:53:37.835Z,7.20
2017-11-11T04:56:06.139Z,7.30
2017-11-11T04:58:33.686Z,7.20
2017-11-11T05:01:01.200Z,7.30
2017-11-11T05:03:28.741Z,7.30
2017-11-11T05:05:56.237Z,7.40
2017-11-11T05:08:24.030Z,7.40
2017-11-11T05:10:51.547Z,7.50
2017-11-11T05:13:19.051Z,7.50
2017-11-11T05:15:46.587Z,7.60
2017-11-11T05:18:14.105Z,7.60
2017-11-11T05:20:41.666Z,7.50
2017-11-11T05:23:09.194Z,7.50
2017-11-11T05:25:36.747Z,7.50
2017-11-11T05:28:04.277Z,7.40
2017-11-11T05:30:32.096Z,7.40
2017-11-11T05:32:59.629Z,7.30
2017-11-11T05:35:27.908Z,7.30
2017-11-11T05:37:56.228Z,7.20
2017-11-11T05:40:23.742Z,7.20
2017-11-11T05:42:52.051Z,7.20
2017-11-11T05:45:19.551Z,7.10
2017-11-11T05:47:47.371Z,7.10
2017-11-11T05:50:14.871Z,7.10
2017-11-11T05:52:42.387Z,7.10
2017-11-11T05:55:11.973Z,7.00
2017-11-11T05:57:40.251Z,7.00
2017-11-11T06:00:08.539Z,7.00
2017-11-11T06:02:36.078Z,6.90
2017-11-11T06:05:04.380Z,6.90
2017-11-11T06:07:31.892Z,6.90
2017-11-11T06:09:59.698Z,7.00
2017-11-11T06:12:27.210Z,7.00
2017-11-11T06:14:54.733Z,7.00
2017-11-11T06:17:22.280Z,7.00
2017-11-11T06:19:49.806Z,7.10
2017-11-11T06:22:17.618Z,7.10
2017-11-11T06:24:45.130Z,7.10
2017-11-11T06:27:12.641Z,7.10
2017-11-11T06:29:40.186Z,7.10
2017-11-11T06:32:07.687Z,7.10
2017-11-11T06:34:35.239Z,7.10
2017-11-11T06:37:02.739Z,7.10
2017-11-11T06:39:30.525Z,7.10
2017-11-11T06:41:58.024Z,7.20
2017-11-11T06:44:25.525Z,7.20
2017-11-11T06:46:53.053Z,7.20
2017-11-11T07:01:39.668Z,7.10
2017-11-11T07:09:51.059Z,7.20
2017-11-11T07:12:31.053Z,7.30
2017-11-11T07:14:59.120Z,7.40
2017-11-11T07:18:42.585Z,7.40
2017-11-11T07:21:33.906Z,7.50
2017-11-11T07:26:43.058Z,7.60
2017-11-11T07:29:11.507Z,7.80
2017-11-11T07:31:39.278Z,7.80
2017-11-11T07:34:14.535Z,7.90
2017-11-11T07:36:44.601Z,8.00
2017-11-11T07:39:12.376Z,8.00
2017-11-11T07:41:40.262Z,8.10
2017-11-11T07:44:08.108Z,8.10
2017-11-11T07:46:35.639Z,8.20
2017-11-11T07:49:03.203Z,8.20
2017-11-11T07:51:30.745Z,8.20
2017-11-11T07:53:59.008Z,8.30
2017-11-11T07:56:27.339Z,8.40
2017-11-11T07:58:54.859Z,8.40
2017-11-11T08:01:23.500Z,8.50
2017-11-11T08:03:51.013Z,8.60
2017-11-11T08:06:18.547Z,8.60
2017-11-11T08:08:46.172Z,8.70
2017-11-11T08:11:13.687Z,8.70
2017-11-11T08:13:42.054Z,8.70
2017-11-11T08:16:10.349Z,8.60
2017-11-11T08:18:38.215Z,8.60
2017-11-11T08:21:05.729Z,8.60
2017-11-11T08:23:35.169Z,8.70
2017-11-11T08:26:03.529Z,8.80
2017-11-11T08:28:31.043Z,8.80
2017-11-11T08:30:58.724Z,8.80
2017-11-11T08:33:26.283Z,8.90
2017-11-11T08:35:54.133Z,8.90
2017-11-11T08:38:21.751Z,9.00
2017-11-11T08:40:49.283Z,9.00
2017-11-11T08:43:16.839Z,9.10
2017-11-11T08:45:44.389Z,9.10
2017-11-11T08:48:11.941Z,9.20
2017-11-11T08:50:39.463Z,9.20
2017-11-11T08:53:08.799Z,9.30
2017-11-11T08:55:37.332Z,9.30
2017-11-11T08:58:04.858Z,9.30
2017-11-11T09:00:32.409Z,9.50
2017-11-11T09:02:59.951Z,9.60
2017-11-11T09:05:27.515Z,9.70
2017-11-11T09:07:55.058Z,9.80
2017-11-11T09:10:23.627Z,9.90
2017-11-11T09:12:51.165Z,9.80
2017-11-11T09:15:18.704Z,9.90
2017-11-11T09:17:46.276Z,9.90
2017-11-11T09:20:13.795Z,9.90
2017-11-11T09:22:41.725Z,9.90
2017-11-11T09:25:09.394Z,9.90
2017-11-11T09:27:37.044Z,9.90
2017-11-11T09:30:05.472Z,9.90
2017-11-11T09:32:36.045Z,9.90
2017-11-11T09:35:04.555Z,9.90
2017-11-11T09:37:32.176Z,9.90
2017-11-11T09:40:20.637Z,10.00
2017-11-11T09:45:38.714Z,10.10
2017-11-11T09:48:22.014Z,10.20
2017-11-11T09:50:49.839Z,10.30
2017-11-11T09:53:18.218Z,10.40
2017-11-11T09:55:46.775Z,10.40
2017-11-11T09:58:14.549Z,10.40
2017-11-11T10:00:46.249Z,10.40
2017-11-11T10:03:14.316Z,10.40
2017-11-11T10:08:36.904Z,10.50
2017-11-11T10:11:06.790Z,10.50
2017-11-11T10:16:52.395Z,10.50
2017-11-11T10:19:20.575Z,10.60
2017-11-11T10:21:48.292Z,10.60
2017-11-11T10:30:11.275Z,10.90
2017-11-11T10:32:39.125Z,11.00
2017-11-11T10:35:06.647Z,11.00
2017-11-11T10:37:34.971Z,11.10
2017-11-11T10:40:02.497Z,11.10
2017-11-11T10:42:30.292Z,11.10
2017-11-11T10:44:57.819Z,10.90
2017-11-11T10:47:26.104Z,10.50
2017-11-11T10:53:30.311Z,10.40
2017-11-11T11:47:21.414Z,9.50
2017-11-11T11:49:52.493Z,9.50
2017-11-11T11:52:22.613Z,9.60
2017-11-11T11:54:50.606Z,9.60
2017-11-11T11:57:18.271Z,9.70
2017-11-11T11:59:45.940Z,9.80
2017-11-11T12:02:13.511Z,9.80
2017-11-11T12:07:14.304Z,9.90
2017-11-11T12:09:42.999Z,10.00
2017-11-11T12:12:10.667Z,10.00
2017-11-11T12:14:39.655Z,10.10
2017-11-11T12:17:07.181Z,10.20
2017-11-11T12:19:35.099Z,10.20
2017-11-11T12:22:04.677Z,10.30
2017-11-11T12:24:32.308Z,10.30
2017-11-11T12:26:59.858Z,10.40
2017-11-11T12:29:27.405Z,10.40
2017-11-11T12:31:55.279Z,10.40
2017-11-11T12:34:22.839Z,10.40
2017-11-11T12:36:50.991Z,10.50
2017-11-11T12:39:42.534Z,10.50
2017-11-11T12:42:10.066Z,10.50
2017-11-11T12:44:40.147Z,10.50
2017-11-11T12:47:07.789Z,10.50
2017-11-11T12:49:35.325Z,10.50
2017-11-11T12:52:02.896Z,10.50
2017-11-11T12:54:30.428Z,10.50
2017-11-11T12:56:59.169Z,10.50
2017-11-11T12:59:27.502Z,10.70
2017-11-11T13:01:55.065Z,10.70
2017-11-11T13:04:22.623Z,10.80
2017-11-11T13:06:50.533Z,10.90
2017-11-11T13:09:18.492Z,11.00
2017-11-11T13:11:46.071Z,11.40
2017-11-11T13:14:13.618Z,11.90
2017-11-11T13:16:41.300Z,12.60
2017-11-11T13:19:09.867Z,12.80
2017-11-11T13:21:37.431Z,12.80
2017-11-11T13:24:04.996Z,12.70
2017-11-11T13:26:33.710Z,12.70
2017-11-11T13:29:01.500Z,12.60
2017-11-11T13:31:29.185Z,12.50
2017-11-11T13:33:56.796Z,12.40
2017-11-11T13:36:25.182Z,12.20
2017-11-11T13:38:52.880Z,12.10
2017-11-11T13:41:20.518Z,12.00
2017-11-11T13:43:48.417Z,11.90
2017-11-11T13:46:16.713Z,11.50
2017-11-11T13:48:44.264Z,11.50
2017-11-11T13:51:12.817Z,11.30
2017-11-11T13:53:40.370Z,11.20
2017-11-11T13:56:08.000Z,11.00
2017-11-11T13:58:35.603Z,10.90
2017-11-11T14:01:03.496Z,10.70
2017-11-11T14:03:31.204Z,10.60
2017-11-11T14:05:58.815Z,10.60
2017-11-11T14:08:26.459Z,10.50
2017-11-11T14:10:54.015Z,10.50
2017-11-11T14:13:25.114Z,10.50
2017-11-11T14:15:52.708Z,10.50
2017-11-11T14:21:25.386Z,10.40
2017-11-11T14:23:57.617Z,10.40
2017-11-11T14:26:25.205Z,10.30
2017-11-11T14:28:53.947Z,10.10
2017-11-11T14:31:21.592Z,10.10
2017-11-11T14:33:49.224Z,10.10
2017-11-11T14:40:22.194Z,9.90
2017-11-11T14:42:57.149Z,9.90
2017-11-11T14:45:33.204Z,9.90
2017-11-11T14:53:15.364Z,9.90
2017-11-11T14:55:53.240Z,9.90
2017-11-11T15:01:11.773Z,9.90
2017-11-11T15:06:38.060Z,9.90
2017-11-11T15:09:06.054Z,9.90
2017-11-11T15:11:34.532Z,9.90
2017-11-11T15:14:02.201Z,9.90
2017-11-11T15:16:29.855Z,9.80
2017-11-11T15:18:58.316Z,9.70
2017-11-11T15:21:26.029Z,9.70
2017-11-11T15:23:53.563Z,9.70
2017-11-11T15:26:21.500Z,9.70
2017-11-11T15:28:49.449Z,9.70
2017-11-11T15:31:17.843Z,9.60
2017-11-11T15:33:45.437Z,9.60
2017-11-11T15:36:13.013Z,9.50
2017-11-11T15:38:40.715Z,9.50
2017-11-11T15:41:08.333Z,9.40
2017-11-11T15:43:36.193Z,9.40
2017-11-11T15:46:03.747Z,9.40
2017-11-11T15:48:31.324Z,9.30
2017-11-11T15:50:58.992Z,9.30
2017-11-11T15:53:26.538Z,9.30
2017-11-11T15:56:09.514Z,9.30
2017-11-11T15:58:37.257Z,9.30
2017-11-11T16:01:18.560Z,9.40
2017-11-11T16:03:56.990Z,9.40
2017-11-11T16:06:35.960Z,9.40
2017-11-11T16:09:04.963Z,9.50
2017-11-11T16:11:40.529Z,9.50
2017-11-11T16:14:09.596Z,9.50
2017-11-11T16:16:39.896Z,9.50
2017-11-11T16:19:12.271Z,9.50
2017-11-11T16:21:41.126Z,9.50
2017-11-11T16:24:13.430Z,9.60
2017-11-11T16:26:42.227Z,9.60
2017-11-11T16:29:12.901Z,9.50
2017-11-11T16:31:40.486Z,9.60
2017-11-11T16:34:16.590Z,9.50
2017-11-11T16:36:48.903Z,9.50
2017-11-11T16:39:16.810Z,9.50
2017-11-11T16:41:49.472Z,9.40
2017-11-11T16:47:12.829Z,9.40
2017-11-11T16:49:41.273Z,9.40
2017-11-11T16:52:12.154Z,9.40
2017-11-11T16:54:40.230Z,9.40
2017-11-11T16:57:22.694Z,9.40
2017-11-11T16:59:50.297Z,9.40
2017-11-11T17:02:18.850Z,9.40
2017-11-11T17:04:48.093Z,9.40
2017-11-11T17:07:21.111Z,9.50
2017-11-11T17:09:56.127Z,9.50
2017-11-11T17:12:25.044Z,9.40
2017-11-11T17:15:01.091Z,9.50
2017-11-11T17:17:29.649Z,9.40
2017-11-11T17:20:02.764Z,9.50
2017-11-11T17:22:33.334Z,9.30
2017-11-11T17:25:05.815Z,9.30
2017-11-11T17:27:33.736Z,9.20
2017-11-11T17:30:04.518Z,9.20
2017-11-11T17:32:34.553Z,9.20
2017-11-11T17:35:07.558Z,9.20
2017-11-11T17:37:35.996Z,9.30
2017-11-11T17:40:09.854Z,9.30
2017-11-11T17:42:37.462Z,9.30
2017-11-11T17:45:05.127Z,9.20
2017-11-11T17:50:23.733Z,9.20
2017-11-11T17:53:06.581Z,9.20
2017-11-11T17:55:40.104Z,9.10
2017-11-11T17:58:08.538Z,9.10
2017-11-11T18:03:33.242Z,9.10
2017-11-11T18:08:44.495Z,9.20
2017-11-11T18:11:13.860Z,9.20
2017-11-11T18:16:19.253Z,9.40
2017-11-11T18:18:58.336Z,9.40
2017-11-11T18:21:45.578Z,9.40
2017-11-11T18:24:20.873Z,9.30
2017-11-11T18:26:51.628Z,8.80
2017-11-11T18:29:29.416Z,9.20
2017-11-11T18:31:58.621Z,9.10
2017-11-11T18:34:28.126Z,9.00
2017-11-11T18:37:02.956Z,8.90
2017-11-11T18:39:30.645Z,8.90
2017-11-11T18:44:52.636Z,8.70
2017-11-11T18:47:22.102Z,8.70
2017-11-11T18:49:55.033Z,8.70
2017-11-11T18:52:24.938Z,8.70
2017-11-11T18:54:53.457Z,8.80
2017-11-11T19:00:24.720Z,8.80
2017-11-11T19:02:53.304Z,8.90
2017-11-11T19:05:23.705Z,8.90
2017-11-11T19:07:52.147Z,8.90
2017-11-11T19:10:21.759Z,9.00
2017-11-11T19:12:49.299Z,9.00
2017-11-11T19:15:17.130Z,8.90
2017-11-11T19:17:46.923Z,8.90
2017-11-11T19:20:14.529Z,8.90
2017-11-11T19:22:48.960Z,8.90
2017-11-11T19:25:21.461Z,8.90
2017-11-11T19:27:49.182Z,8.90
2017-11-11T19:30:17.693Z,8.90
2017-11-11T19:32:47.319Z,8.90
2017-11-11T19:35:18.115Z,8.90
2017-11-11T19:37:45.709Z,8.80
2017-11-11T19:40:14.679Z,8.80
2017-11-11T19:42:44.133Z,8.80
2017-11-11T19:45:11.761Z,8.80
2017-11-11T19:47:44.808Z,8.80
2017-11-11T19:50:16.903Z,8.80
2017-11-11T19:52:45.379Z,8.80
2017-11-11T19:55:13.795Z,8.80
2017-11-11T19:57:42.285Z,8.80
2017-11-11T20:00:11.569Z,8.80
2017-11-11T20:02:51.661Z,8.80
2017-11-11T20:05:20.501Z,8.80
2017-11-11T20:07:49.400Z,8.80
2017-11-11T20:10:20.827Z,8.80
2017-11-11T20:12:50.135Z,8.70
2017-11-11T20:15:19.468Z,8.90
2017-11-11T20:17:57.985Z,9.00
2017-11-11T20:20:26.422Z,9.00
2017-11-11T20:22:54.519Z,9.00
2017-11-11T20:25:22.449Z,9.00
2017-11-11T20:27:54.652Z,9.00
2017-11-11T20:30:22.465Z,9.00
2017-11-11T20:32:50.685Z,9.00
2017-11-11T20:38:03.740Z,9.00
2017-11-11T20:40:33.066Z,8.90
2017-11-11T20:43:01.387Z,8.90
2017-11-11T20:45:29.675Z,8.90
2017-11-11T20:47:59.721Z,8.80
2017-11-11T20:50:32.481Z,8.80
2017-11-11T20:53:01.217Z,8.80
2017-11-11T20:55:37.708Z,8.70
2017-11-11T20:58:05.629Z,8.70
2017-11-11T21:00:33.642Z,8.60
2017-11-11T21:03:03.583Z,8.60
2017-11-11T21:05:34.681Z,8.60
2017-11-11T21:08:03.201Z,8.60
2017-11-11T21:10:30.820Z,8.60
2017-11-11T21:12:59.024Z,8.60
2017-11-11T21:15:35.746Z,8.60
2017-11-11T21:18:04.892Z,8.60
2017-11-11T21:23:10.413Z,8.50
2017-11-11T21:25:47.333Z,8.50
2017-11-11T21:28:25.256Z,8.40
2017-11-11T21:30:58.982Z,8.40
2017-11-11T21:33:35.088Z,8.30
2017-11-11T21:36:06.970Z,8.30
2017-11-11T21:38:35.058Z,8.30
2017-11-11T21:41:02.621Z,8.30
2017-11-11T21:43:36.024Z,8.20
2017-11-11T21:46:03.626Z,8.30
2017-11-11T21:48:35.208Z,8.30
2017-11-11T21:51:03.001Z,8.30
2017-11-11T21:53:31.354Z,8.30
2017-11-11T21:55:59.066Z,8.30
2017-11-11T21:58:26.648Z,8.30
2017-11-11T22:00:54.205Z,8.30
2017-11-11T22:03:23.224Z,8.30
2017-11-11T22:05:52.806Z,8.30
2017-11-11T22:08:22.414Z,8.30
2017-11-11T22:10:50.839Z,8.30
2017-11-11T22:13:20.624Z,8.30
2017-11-11T22:15:51.983Z,8.30
2017-11-11T22:18:22.441Z,8.30
2017-11-11T22:20:55.027Z,8.30
2017-11-11T22:25:57.782Z,8.40
2017-11-11T22:28:28.401Z,8.80
2017-11-11T22:31:02.766Z,8.40
2017-11-11T22:33:31.838Z,8.50
2017-11-11T22:38:55.109Z,8.40
2017-11-11T22:41:29.110Z,8.40
2017-11-11T22:43:57.533Z,8.40
2017-11-11T22:46:27.915Z,8.50
2017-11-11T22:48:58.036Z,8.50
2017-11-11T22:51:27.911Z,8.50
2017-11-11T22:53:55.570Z,8.50
2017-11-11T22:56:26.158Z,8.80
2017-11-11T22:58:54.047Z,8.50
2017-11-11T23:01:26.585Z,8.50
2017-11-11T23:04:01.216Z,8.50
2017-11-11T23:06:28.779Z,8.50
2017-11-11T23:08:56.635Z,8.50
2017-11-11T23:11:24.160Z,8.50
2017-11-11T23:13:51.674Z,8.50
2017-11-11T23:16:19.345Z,8.50
2017-11-11T23:18:47.084Z,8.50
2017-11-11T23:21:14.676Z,8.50
2017-11-11T23:23:42.207Z,8.50
2017-11-11T23:26:10.283Z,8.50
2017-11-11T23:28:37.826Z,8.50
2017-11-11T23:31:05.354Z,8.40
2017-11-11T23:33:33.683Z,8.40
2017-11-11T23:36:01.427Z,8.40
2017-11-11T23:38:29.049Z,8.40
2017-11-11T23:40:57.338Z,8.40
2017-11-11T23:43:25.906Z,8.40
2017-11-11T23:45:53.568Z,8.40
2017-11-11T23:48:21.149Z,8.40
2017-11-11T23:50:49.640Z,8.30
2017-11-11T23:53:17.168Z,8.20
2017-11-11T23:55:44.698Z,8.20
2017-11-11T23:58:12.750Z,8.20
